createdAt,value
2023-04-16T00:01:26.212Z,99715.72
2023-04-16T00:03:52.947Z,99725.09
2023-04-16T00:06:19.793Z,99728.41
2023-04-16T00:08:46.437Z,99731.81
2023-04-16T00:11:13.077Z,99744.63
2023-04-16T00:13:39.705Z,99740.34
2023-04-16T00:16:06.506Z,99742.03
2023-04-16T00:18:33.014Z,99748.81
2023-04-16T00:20:59.818Z,99748.66
2023-04-16T00:23:26.367Z,99743.50
2023-04-16T00:25:53.826Z,99752.84
2023-04-16T00:28:21.186Z,99752.78
2023-04-16T00:30:47.774Z,99755.34
2023-04-16T00:33:14.315Z,99766.38
2023-04-16T00:35:40.905Z,99759.50
2023-04-16T00:38:07.511Z,99763.69
2023-04-16T00:40:34.057Z,99769.59
2023-04-16T00:43:00.609Z,99758.44
2023-04-16T00:45:27.363Z,99768.66
2023-04-16T00:47:54.120Z,99766.91
2023-04-16T00:50:20.869Z,99768.56
2023-04-16T00:52:48.538Z,99773.69
2023-04-16T00:55:19.082Z,99768.56
2023-04-16T00:57:46.162Z,99759.22
2023-04-16T01:00:13.088Z,99767.72
2023-04-16T01:02:40.028Z,99766.81
2023-04-16T01:05:06.822Z,99772.81
2023-04-16T01:07:33.429Z,99771.97
2023-04-16T01:09:59.960Z,99770.25
2023-04-16T01:12:26.510Z,99765.09
2023-04-16T01:14:53.166Z,99770.25
2023-04-16T01:17:19.744Z,99775.31
2023-04-16T01:19:46.287Z,99767.59
2023-04-16T01:22:12.842Z,99774.44
2023-04-16T01:24:40.507Z,99774.44
2023-04-16T01:27:07.152Z,99777.03
2023-04-16T01:29:33.794Z,99790.69
2023-04-16T01:32:00.427Z,99788.06
2023-04-16T01:34:27.148Z,99788.94
2023-04-16T01:36:53.763Z,99784.59
2023-04-16T01:39:20.411Z,99787.22
2023-04-16T01:41:46.950Z,99787.22
2023-04-16T01:44:13.571Z,99783.81
2023-04-16T01:46:40.205Z,99790.69
2023-04-16T01:49:07.559Z,99786.38
2023-04-16T01:51:34.338Z,99794.06
2023-04-16T01:54:01.099Z,99797.47
2023-04-16T01:56:27.711Z,99807.69
2023-04-16T01:58:54.320Z,99802.56
2023-04-16T02:01:21.205Z,99810.22
2023-04-16T02:03:48.119Z,99819.56
2023-04-16T02:06:15.102Z,99811.84
2023-04-16T02:08:41.893Z,99812.63
2023-04-16T02:11:08.453Z,99813.50
2023-04-16T02:13:35.103Z,99816.88
2023-04-16T02:16:02.648Z,99811.75
2023-04-16T02:18:49.259Z,99821.06
2023-04-16T02:21:16.025Z,99819.25
2023-04-16T02:23:42.649Z,99835.41
2023-04-16T02:26:09.186Z,99832.75
2023-04-16T02:28:35.717Z,99840.34
2023-04-16T02:31:02.341Z,99838.53
2023-04-16T02:33:28.974Z,99837.63
2023-04-16T02:35:55.571Z,99854.59
2023-04-16T02:38:22.088Z,99853.63
2023-04-16T02:40:48.692Z,99856.16
2023-04-16T02:43:15.420Z,99857.75
2023-04-16T02:45:42.006Z,99864.50
2023-04-16T02:48:09.766Z,99895.09
2023-04-16T02:50:36.443Z,99884.75
2023-04-16T02:53:04.299Z,99877.91
2023-04-16T02:55:30.886Z,99888.16
2023-04-16T02:57:57.429Z,99887.22
2023-04-16T03:00:23.989Z,99894.91
2023-04-16T03:02:50.906Z,99890.56
2023-04-16T03:05:17.746Z,99893.94
2023-04-16T03:07:44.308Z,99893.09
2023-04-16T03:10:11.975Z,99898.22
2023-04-16T03:12:39.295Z,99887.16
2023-04-16T03:15:06.270Z,99898.25
2023-04-16T03:17:32.895Z,99894.00
2023-04-16T03:19:59.475Z,99895.75
2023-04-16T03:22:26.167Z,99900.06
2023-04-16T03:24:52.773Z,99893.28
2023-04-16T03:27:19.294Z,99912.03
2023-04-16T03:29:45.828Z,99913.78
2023-04-16T03:32:12.965Z,99950.47
2023-04-16T03:34:39.628Z,99935.91
2023-04-16T03:37:06.310Z,99927.41
2023-04-16T03:39:33.778Z,99924.03
2023-04-16T03:42:00.315Z,99941.13
2023-04-16T03:44:26.837Z,99924.09
2023-04-16T03:46:53.561Z,99929.31
2023-04-16T03:49:20.212Z,99917.41
2023-04-16T03:51:46.819Z,99919.16
2023-04-16T03:54:13.454Z,99934.59
2023-04-16T03:56:40.352Z,99944.84
2023-04-16T03:59:06.948Z,99942.34
2023-04-16T04:01:33.593Z,99963.75
2023-04-16T04:04:00.619Z,99955.22
2023-04-16T04:06:27.596Z,99950.28
2023-04-16T04:08:54.236Z,99958.03
2023-04-16T04:11:20.792Z,99949.63
2023-04-16T04:13:47.323Z,99952.25
2023-04-16T04:16:13.851Z,99947.31
2023-04-16T04:18:40.630Z,99963.66
2023-04-16T04:21:07.729Z,99964.59
2023-04-16T04:23:34.849Z,99962.09
2023-04-16T04:26:03.915Z,99952.00
2023-04-16T04:28:30.813Z,99964.94
2023-04-16T04:30:58.034Z,99970.22
2023-04-16T04:33:25.556Z,99962.63
2023-04-16T04:35:52.532Z,99960.13
2023-04-16T04:38:20.149Z,99955.13
2023-04-16T04:40:46.942Z,99958.72
2023-04-16T04:43:13.610Z,99972.56
2023-04-16T04:45:40.475Z,99965.84
2023-04-16T04:48:07.108Z,99967.75
2023-04-16T04:50:33.686Z,99962.84
2023-04-16T04:53:00.241Z,99959.59
2023-04-16T04:55:26.852Z,99954.59
2023-04-16T04:57:53.436Z,99948.69
2023-04-16T05:00:20.082Z,99946.31
2023-04-16T05:02:47.522Z,99949.03
2023-04-16T05:05:14.243Z,99954.34
2023-04-16T05:07:40.991Z,99955.38
2023-04-16T05:10:08.068Z,99958.97
2023-04-16T05:12:34.862Z,99954.84
2023-04-16T05:15:01.414Z,99954.97
2023-04-16T05:17:28.016Z,99949.94
2023-04-16T05:19:54.582Z,99952.63
2023-04-16T05:22:21.426Z,99945.97
2023-04-16T05:24:48.070Z,99937.59
2023-04-16T05:27:14.679Z,99942.06
2023-04-16T05:29:41.346Z,99941.41
2023-04-16T05:32:08.126Z,99945.00
2023-04-16T05:34:34.722Z,99944.25
2023-04-16T05:37:01.478Z,99943.56
2023-04-16T05:39:28.077Z,99942.00
2023-04-16T05:41:54.596Z,99940.47
2023-04-16T05:44:21.283Z,99930.34
2023-04-16T05:46:47.780Z,99921.03
2023-04-16T05:49:14.355Z,99927.19
2023-04-16T05:51:41.055Z,99921.41
2023-04-16T05:54:07.606Z,99915.56
2023-04-16T05:56:34.190Z,99914.06
2023-04-16T05:59:00.717Z,99905.69
2023-04-16T06:01:27.248Z,99907.56
2023-04-16T06:03:53.964Z,99902.59
2023-04-16T06:06:20.694Z,99899.31
2023-04-16T06:08:47.212Z,99906.38
2023-04-16T06:11:13.875Z,99896.25
2023-04-16T06:13:40.506Z,99880.88
2023-04-16T06:16:07.195Z,99891.31
2023-04-16T06:18:33.890Z,99891.44
2023-04-16T06:21:00.546Z,99870.03
2023-04-16T06:23:27.092Z,99879.59
2023-04-16T06:25:53.654Z,99871.94
2023-04-16T06:28:20.359Z,99865.19
2023-04-16T06:30:47.162Z,99878.25
2023-04-16T06:33:13.734Z,99871.53
2023-04-16T06:35:40.386Z,99875.13
2023-04-16T06:38:06.902Z,99876.09
2023-04-16T06:40:33.446Z,99873.59
2023-04-16T06:43:00.120Z,99872.78
2023-04-16T06:45:26.755Z,99863.41
2023-04-16T06:47:53.420Z,99858.25
2023-04-16T06:50:20.150Z,99848.69
2023-04-16T06:52:46.715Z,99846.09
2023-04-16T06:55:13.241Z,99847.06
2023-04-16T06:57:40.761Z,99835.88
2023-04-16T07:00:07.728Z,99836.75
2023-04-16T07:02:34.681Z,99842.81
2023-04-16T07:05:01.510Z,99835.13
2023-04-16T07:07:28.135Z,99827.34
2023-04-16T07:09:54.689Z,99836.00
2023-04-16T07:12:22.670Z,99813.63
2023-04-16T07:14:49.669Z,99804.13
2023-04-16T07:17:16.228Z,99798.09
2023-04-16T07:19:42.784Z,99798.97
2023-04-16T07:22:09.313Z,99767.03
2023-04-16T07:24:36.015Z,99787.72
2023-04-16T07:27:02.594Z,99771.31
2023-04-16T07:29:29.175Z,99781.72
2023-04-16T07:31:55.842Z,99785.16
2023-04-16T07:34:22.490Z,99771.31
2023-04-16T07:36:49.053Z,99779.06
2023-04-16T07:39:15.642Z,99781.63
2023-04-16T07:41:43.278Z,99743.59
2023-04-16T07:44:09.933Z,99757.44
2023-04-16T07:46:46.332Z,99711.69
2023-04-16T07:49:14.165Z,99703.06
2023-04-16T07:51:40.927Z,99705.66
2023-04-16T07:54:07.446Z,99700.47
2023-04-16T07:56:34.036Z,99684.06
2023-04-16T07:59:07.999Z,99646.88
2023-04-16T08:01:41.561Z,99640.84
2023-04-16T08:04:08.395Z,99609.81
2023-04-16T08:06:35.055Z,99604.63
2023-04-16T08:09:01.621Z,99582.19
2023-04-16T08:11:28.288Z,99589.13
2023-04-16T08:13:54.878Z,99562.31
2023-04-16T08:16:21.512Z,99552.84
2023-04-16T08:18:48.167Z,99539.06
2023-04-16T08:21:14.867Z,99511.56
2023-04-16T08:23:41.482Z,99523.59
2023-04-16T08:26:08.049Z,99509.78
2023-04-16T08:28:34.677Z,99518.38
2023-04-16T08:31:01.420Z,99507.13
2023-04-16T08:33:28.023Z,99506.28
2023-04-16T08:35:54.592Z,99498.44
2023-04-16T08:38:21.229Z,99509.59
2023-04-16T08:40:48.532Z,99506.94
2023-04-16T08:43:16.203Z,99493.06
2023-04-16T08:45:44.052Z,99494.75
2023-04-16T08:48:11.966Z,99462.81
2023-04-16T08:50:38.831Z,99454.19
2023-04-16T08:53:08.684Z,99447.25
2023-04-16T08:55:45.965Z,99454.97
2023-04-16T08:58:18.571Z,99454.03
2023-04-16T09:00:48.648Z,99445.25
2023-04-16T09:03:15.426Z,99446.81
2023-04-16T09:05:42.697Z,99441.53
2023-04-16T09:08:09.576Z,99427.72
2023-04-16T09:10:36.143Z,99457.06
2023-04-16T09:13:02.715Z,99431.91
2023-04-16T09:15:29.595Z,99457.66
2023-04-16T09:17:57.664Z,99467.78
2023-04-16T09:20:24.645Z,99432.09
2023-04-16T09:22:51.341Z,99418.31
2023-04-16T09:25:20.088Z,99436.44
2023-04-16T09:27:49.250Z,99436.22
2023-04-16T09:30:22.711Z,99422.41
2023-04-16T09:32:49.690Z,99405.97
2023-04-16T09:35:17.454Z,99399.97
2023-04-16T09:37:44.051Z,99409.53
2023-04-16T09:40:11.379Z,99423.38
2023-04-16T09:42:38.108Z,99427.56
2023-04-16T09:45:06.153Z,99417.84
2023-04-16T09:47:41.110Z,99420.19
2023-04-16T09:50:10.574Z,99402.78
2023-04-16T09:52:39.085Z,99415.69
2023-04-16T09:55:05.953Z,99410.56
2023-04-16T09:57:32.546Z,99401.94
2023-04-16T10:00:04.051Z,99392.34
2023-04-16T10:02:31.556Z,99399.97
2023-04-16T10:04:58.344Z,99399.78
2023-04-16T10:07:28.389Z,99356.47
2023-04-16T10:09:55.975Z,99384.88
2023-04-16T10:12:22.561Z,99382.00
2023-04-16T10:14:50.416Z,99378.25
2023-04-16T10:17:17.383Z,99389.97
2023-04-16T10:19:44.475Z,99392.69
2023-04-16T10:22:11.316Z,99400.06
2023-04-16T10:24:39.011Z,99347.91
2023-04-16T10:27:07.854Z,99342.41
2023-04-16T10:29:35.070Z,99327.97
2023-04-16T10:32:02.122Z,99349.50
2023-04-16T10:34:29.109Z,99339.22
2023-04-16T10:36:56.051Z,99324.72
2023-04-16T10:39:24.063Z,99301.41
2023-04-16T10:41:51.500Z,99256.66
2023-04-16T10:44:19.127Z,99135.56
2023-04-16T10:46:52.148Z,99115.44
2023-04-16T10:49:19.720Z,99167.50
2023-04-16T10:51:56.999Z,99162.59
2023-04-16T10:54:27.797Z,99100.09
2023-04-16T10:56:56.348Z,99152.72
2023-04-16T10:59:23.636Z,99169.31
2023-04-16T11:01:51.810Z,99172.31
2023-04-16T11:04:22.055Z,99153.34
2023-04-16T11:07:02.246Z,99122.19
2023-04-16T11:09:47.726Z,99021.63
2023-04-16T11:12:16.249Z,99002.03
2023-04-16T11:14:42.839Z,98998.56
2023-04-16T11:17:09.746Z,98950.28
2023-04-16T11:19:37.112Z,98988.09
2023-04-16T11:22:04.118Z,98943.59
2023-04-16T11:24:33.775Z,98977.31
2023-04-16T11:27:01.603Z,98950.94
2023-04-16T11:29:28.145Z,98946.75
2023-04-16T11:31:55.196Z,98935.56
2023-04-16T11:34:21.881Z,98911.78
2023-04-16T11:36:49.566Z,98934.84
2023-04-16T11:39:16.333Z,98958.47
2023-04-16T11:41:47.621Z,98938.44
2023-04-16T11:44:21.242Z,98939.53
2023-04-16T11:46:48.373Z,98898.69
2023-04-16T11:49:17.299Z,98882.41
2023-04-16T11:51:44.990Z,98882.16
2023-04-16T11:54:21.316Z,98884.03
2023-04-16T11:56:48.893Z,98893.88
2023-04-16T11:59:17.100Z,98898.78
2023-04-16T12:01:48.070Z,98875.56
2023-04-16T12:04:21.668Z,98861.84
2023-04-16T12:07:07.441Z,98841.50
2023-04-16T12:09:40.128Z,98826.75
2023-04-16T12:12:25.134Z,98782.03
2023-04-16T12:14:52.209Z,98760.63
2023-04-16T12:17:21.852Z,98760.25
2023-04-16T12:19:52.360Z,98761.94
2023-04-16T12:22:26.546Z,98768.47
2023-04-16T12:24:57.052Z,98743.72
2023-04-16T12:27:28.509Z,98679.13
2023-04-16T12:30:07.635Z,98696.44
2023-04-16T12:32:34.310Z,98702.78
2023-04-16T12:35:01.248Z,98669.75
2023-04-16T12:37:28.484Z,98688.31
2023-04-16T12:39:55.166Z,98689.25
2023-04-16T12:42:25.136Z,98657.34
2023-04-16T12:44:51.778Z,98635.81
2023-04-16T12:47:18.423Z,98641.41
2023-04-16T12:49:45.736Z,98650.50
2023-04-16T12:52:12.524Z,98650.47
2023-04-16T12:54:39.192Z,98671.53
2023-04-16T12:57:05.941Z,98673.63
2023-04-16T12:59:32.477Z,98677.00
2023-04-16T13:02:00.900Z,98672.25
2023-04-16T13:04:27.866Z,98674.47
2023-04-16T13:06:54.796Z,98662.31
2023-04-16T13:09:21.498Z,98649.56
2023-04-16T13:11:48.182Z,98603.41
2023-04-16T13:14:14.755Z,98585.88
2023-04-16T13:16:41.457Z,98569.44
2023-04-16T13:19:08.255Z,98578.34
2023-04-16T13:21:35.135Z,98560.38
2023-04-16T13:24:01.800Z,98573.91
2023-04-16T13:26:28.497Z,98582.47
2023-04-16T13:28:55.057Z,98580.56
2023-04-16T13:31:22.333Z,98560.19
2023-04-16T13:33:49.016Z,98580.34
2023-04-16T13:36:15.707Z,98575.59
2023-04-16T13:38:42.360Z,98547.63
2023-04-16T13:41:08.913Z,98559.38
2023-04-16T13:43:37.138Z,98562.00
2023-04-16T13:46:03.901Z,98548.66
2023-04-16T13:48:30.872Z,98531.47
2023-04-16T13:50:57.522Z,98534.22
2023-04-16T13:53:24.099Z,98543.53
2023-04-16T13:55:50.951Z,98528.91
2023-04-16T13:58:17.628Z,98539.25
2023-04-16T14:00:44.387Z,98553.88
2023-04-16T14:03:11.334Z,98503.66
2023-04-16T14:05:38.152Z,98522.19
2023-04-16T14:08:04.737Z,98534.69
2023-04-16T14:10:31.625Z,98539.19
2023-04-16T14:12:58.563Z,98546.91
2023-04-16T14:15:27.471Z,98551.53
2023-04-16T14:17:54.156Z,98558.69
2023-04-16T14:20:20.990Z,98568.75
2023-04-16T14:22:47.645Z,98574.03
2023-04-16T14:25:14.308Z,98574.28
2023-04-16T14:27:41.544Z,98577.59
2023-04-16T14:30:08.346Z,98591.59
2023-04-16T14:32:35.107Z,98600.19
2023-04-16T14:35:01.770Z,98610.84
2023-04-16T14:37:29.694Z,98615.78
2023-04-16T14:39:56.647Z,98602.47
2023-04-16T14:42:23.326Z,98607.78
2023-04-16T14:44:49.959Z,98603.56
2023-04-16T14:47:16.619Z,98614.63
2023-04-16T14:49:43.160Z,98611.06
2023-04-16T14:52:09.787Z,98618.06
2023-04-16T14:54:36.363Z,98624.44
2023-04-16T14:57:03.480Z,98627.09
2023-04-16T14:59:30.484Z,98625.84
2023-04-16T15:01:58.087Z,98623.19
2023-04-16T15:04:25.878Z,98627.06
2023-04-16T15:06:52.630Z,98624.00
2023-04-16T15:09:19.225Z,98639.47
2023-04-16T15:11:45.830Z,98654.66
2023-04-16T15:14:12.732Z,98659.19
2023-04-16T15:16:39.705Z,98657.09
2023-04-16T15:19:06.323Z,98681.34
2023-04-16T15:21:33.046Z,98680.09
2023-04-16T15:23:59.629Z,98690.81
2023-04-16T15:26:26.198Z,98691.13
2023-04-16T15:28:52.778Z,98697.69
2023-04-16T15:31:20.971Z,98703.16
2023-04-16T15:33:48.331Z,98716.28
2023-04-16T15:36:15.036Z,98718.22
2023-04-16T15:38:42.018Z,98729.72
2023-04-16T15:41:09.367Z,98726.44
2023-04-16T15:43:36.052Z,98723.88
2023-04-16T15:46:02.631Z,98743.94
2023-04-16T15:48:30.678Z,98741.53
2023-04-16T15:50:57.257Z,98746.84
2023-04-16T15:53:23.846Z,98746.97
2023-04-16T15:55:52.481Z,98752.25
2023-04-16T15:58:19.339Z,98753.25
2023-04-16T16:00:49.734Z,98767.31
2023-04-16T16:03:17.896Z,98761.28
2023-04-16T16:05:47.089Z,98777.06
2023-04-16T16:08:14.101Z,98776.25
2023-04-16T16:10:41.101Z,98771.09
2023-04-16T16:13:12.167Z,98790.25
2023-04-16T16:15:41.904Z,98790.31
2023-04-16T16:18:08.593Z,98791.19
2023-04-16T16:20:35.166Z,98791.19
2023-04-16T16:23:02.004Z,98793.00
2023-04-16T16:25:30.390Z,98802.59
2023-04-16T16:27:57.146Z,98798.19
2023-04-16T16:30:23.712Z,98801.59
2023-04-16T16:32:51.190Z,98806.81
2023-04-16T16:35:17.833Z,98807.78
2023-04-16T16:37:44.459Z,98818.22
2023-04-16T16:40:11.427Z,98818.28
2023-04-16T16:42:38.054Z,98820.97
2023-04-16T16:45:06.096Z,98826.16
2023-04-16T16:47:33.417Z,98827.06
2023-04-16T16:50:02.165Z,98828.81
2023-04-16T16:52:29.806Z,98829.72
2023-04-16T16:54:56.922Z,98841.09
2023-04-16T16:57:26.450Z,98852.50
2023-04-16T16:59:54.496Z,98842.16
2023-04-16T17:02:21.746Z,98851.78
2023-04-16T17:04:48.388Z,98857.09
2023-04-16T17:07:14.977Z,98862.34
2023-04-16T17:09:42.043Z,98859.84
2023-04-16T17:12:08.641Z,98866.00
2023-04-16T17:14:35.680Z,98887.78
2023-04-16T17:17:02.462Z,98884.34
2023-04-16T17:19:29.217Z,98887.84
2023-04-16T17:21:55.982Z,98879.16
2023-04-16T17:24:22.623Z,98888.69
2023-04-16T17:26:49.190Z,98881.78
2023-04-16T17:29:15.785Z,98880.06
2023-04-16T17:31:42.469Z,98884.41
2023-04-16T17:34:09.495Z,98888.78
2023-04-16T17:36:36.915Z,98898.38
2023-04-16T17:39:03.507Z,98900.09
2023-04-16T17:41:30.052Z,98898.38
2023-04-16T17:43:56.740Z,98900.06
2023-04-16T17:46:23.471Z,98921.69
2023-04-16T17:48:50.297Z,98911.38
2023-04-16T17:51:16.872Z,98912.28
2023-04-16T17:53:43.654Z,98927.06
2023-04-16T17:56:10.661Z,98917.59
2023-04-16T17:58:37.305Z,98916.72
2023-04-16T18:01:03.964Z,98924.53
2023-04-16T18:03:31.801Z,98932.44
2023-04-16T18:05:58.656Z,98927.31
2023-04-16T18:08:25.312Z,98926.47
2023-04-16T18:10:52.210Z,98938.53
2023-04-16T18:13:18.838Z,98944.69
2023-04-16T18:15:45.447Z,98938.69
2023-04-16T18:18:13.243Z,98936.97
2023-04-16T18:20:39.924Z,98945.72
2023-04-16T18:23:06.524Z,98945.75
2023-04-16T18:25:35.172Z,98955.31
2023-04-16T18:28:03.706Z,98952.69
2023-04-16T18:30:30.577Z,98953.69
2023-04-16T18:35:26.940Z,98952.88
2023-04-16T18:37:53.481Z,98962.44
2023-04-16T18:40:20.100Z,98952.06
2023-04-16T18:42:47.165Z,98965.03
2023-04-16T18:45:16.484Z,98966.72
2023-04-16T18:47:48.157Z,98966.81
2023-04-16T18:50:14.882Z,98972.84
2023-04-16T18:52:41.649Z,98973.75
2023-04-16T18:55:08.501Z,98975.50
2023-04-16T18:57:35.111Z,98971.19
2023-04-16T19:00:02.213Z,98973.75
2023-04-16T19:02:30.220Z,98974.66
2023-04-16T19:04:56.907Z,98989.44
2023-04-16T19:07:23.468Z,98981.63
2023-04-16T19:09:50.288Z,98992.91
2023-04-16T19:12:16.919Z,98983.44
2023-04-16T19:14:43.543Z,98984.28
2023-04-16T19:17:10.521Z,98983.41
2023-04-16T19:19:37.094Z,98980.00
2023-04-16T19:22:03.684Z,98985.19
2023-04-16T19:24:32.992Z,98982.63
2023-04-16T19:27:02.559Z,98986.97
2023-04-16T19:29:32.740Z,98991.31
2023-04-16T19:31:59.415Z,99000.06
2023-04-16T19:34:26.296Z,98998.38
2023-04-16T19:36:52.919Z,99000.97
2023-04-16T19:39:19.523Z,98997.50
2023-04-16T19:41:46.330Z,99003.59
2023-04-16T19:44:13.014Z,99003.56
2023-04-16T19:46:39.585Z,99013.06
2023-04-16T19:49:06.265Z,99010.47
2023-04-16T19:51:32.945Z,99019.22
2023-04-16T19:53:59.611Z,99011.44
2023-04-16T19:56:26.359Z,99030.50
2023-04-16T19:58:52.988Z,99029.69
2023-04-16T20:01:19.723Z,99028.81
2023-04-16T20:03:46.767Z,99029.63
2023-04-16T20:06:13.571Z,99042.72
2023-04-16T20:08:40.849Z,99047.13
2023-04-16T20:11:08.653Z,99060.16
2023-04-16T20:13:37.530Z,99053.28
2023-04-16T20:16:04.319Z,99049.84
2023-04-16T20:18:31.035Z,99053.28
2023-04-16T20:20:57.594Z,99057.69
2023-04-16T20:23:24.209Z,99057.75
2023-04-16T20:25:50.879Z,99056.06
2023-04-16T20:28:21.326Z,99057.03
2023-04-16T20:30:48.007Z,99063.09
2023-04-16T20:33:14.700Z,99066.59
2023-04-16T20:35:41.653Z,99070.88
2023-04-16T20:38:08.500Z,99070.03
2023-04-16T20:40:38.078Z,99064.94
2023-04-16T20:43:04.921Z,99070.13
2023-04-16T20:45:38.315Z,99067.59
2023-04-16T20:48:05.501Z,99075.38
2023-04-16T20:50:32.078Z,99084.09
2023-04-16T20:52:58.757Z,99077.25
2023-04-16T20:55:25.698Z,99080.75
2023-04-16T20:57:52.310Z,99089.44
2023-04-16T21:00:19.102Z,99080.84
2023-04-16T21:02:45.895Z,99076.50
2023-04-16T21:05:16.274Z,99080.94
2023-04-16T21:07:43.122Z,99101.69
2023-04-16T21:10:10.107Z,99094.81
2023-04-16T21:12:37.286Z,99093.94
2023-04-16T21:15:04.206Z,99106.94
2023-04-16T21:17:31.118Z,99112.19
2023-04-16T21:19:57.782Z,99115.66
2023-04-16T21:22:24.381Z,99114.81
2023-04-16T21:24:50.934Z,99122.63
2023-04-16T21:27:17.606Z,99112.25
2023-04-16T21:29:44.191Z,99110.56
2023-04-16T21:32:10.824Z,99112.25
2023-04-16T21:34:37.406Z,99116.59
2023-04-16T21:37:04.025Z,99119.22
2023-04-16T21:39:31.150Z,99124.47
2023-04-16T21:41:58.093Z,99131.41
2023-04-16T21:44:24.683Z,99133.13
2023-04-16T21:46:51.281Z,99139.09
2023-04-16T21:49:17.980Z,99138.25
2023-04-16T21:51:46.105Z,99139.13
2023-04-16T21:54:12.733Z,99150.38
2023-04-16T21:56:39.351Z,99141.75
2023-04-16T21:59:05.982Z,99150.41
2023-04-16T22:01:32.684Z,99172.97
2023-04-16T22:03:59.483Z,99168.72
2023-04-16T22:06:27.161Z,99159.22
2023-04-16T22:08:53.743Z,99187.78
2023-04-16T22:11:20.795Z,99173.03
2023-04-16T22:13:47.941Z,99174.72
2023-04-16T22:16:15.583Z,99171.25
2023-04-16T22:18:42.846Z,99171.31
2023-04-16T22:21:09.562Z,99170.50
2023-04-16T22:23:36.237Z,99175.69
2023-04-16T22:26:04.202Z,99177.44
2023-04-16T22:28:30.909Z,99190.41
2023-04-16T22:30:57.613Z,99200.78
2023-04-16T22:33:24.199Z,99192.16
2023-04-16T22:35:50.761Z,99200.84
2023-04-16T22:38:17.350Z,99211.22
2023-04-16T22:40:46.889Z,99218.16
2023-04-16T22:43:13.483Z,99226.84
2023-04-16T22:45:41.099Z,99223.44
2023-04-16T22:48:07.850Z,99220.84
2023-04-16T22:50:34.562Z,99229.50
2023-04-16T22:53:01.096Z,99233.00
2023-04-16T22:55:27.730Z,99231.31
2023-04-16T22:57:54.323Z,99247.72
2023-04-16T23:00:21.208Z,99246.88
2023-04-16T23:02:47.943Z,99253.78
2023-04-16T23:05:14.651Z,99261.56
2023-04-16T23:07:41.358Z,99265.91
2023-04-16T23:10:08.713Z,99247.78
2023-04-16T23:12:37.399Z,99243.53
2023-04-16T23:15:04.803Z,99250.44
2023-04-16T23:17:31.614Z,99273.72
2023-04-16T23:19:58.248Z,99258.22
2023-04-16T23:22:24.854Z,99248.75
2023-04-16T23:24:51.382Z,99245.31
2023-04-16T23:27:17.949Z,99252.19
2023-04-16T23:29:44.490Z,99250.50
2023-04-16T23:32:11.061Z,99244.47
2023-04-16T23:34:37.630Z,99248.81
2023-04-16T23:37:04.235Z,99254.84
2023-04-16T23:39:30.870Z,99245.38
2023-04-16T23:41:57.605Z,99251.44
2023-04-16T23:44:24.241Z,99270.41
2023-04-16T23:46:50.868Z,99254.03
2023-04-16T23:49:17.512Z,99253.19
2023-04-16T23:51:44.102Z,99263.50
2023-04-16T23:54:10.774Z,99265.22
2023-04-16T23:56:37.355Z,99268.69
2023-04-16T23:59:03.927Z,99264.38
